Terminal Aerodrome Forecast
Issued by NWS

Home | Current Version | Previous Version | Text Only | Print | Product List | Glossary On
Versions: 1 2 3 4 5 6 7 8 9 10 11 12 13 14 15 16 17 18 19 20 21 22
107
FTUS46 KPDT 221031 AAD
TAFYKM
TAF AMD
KYKM 221031Z 2211/2306 25008KT 6SM -RA BR SCT070 BKN080 OVC090
      TEMPO 2211/2212 5SM RA BR BKN040 OVC050
     FM221200 26010KT P6SM SCT060 SCT200
     FM221700 28019G28KT P6SM SCT070 BKN250=

USA.gov is the U.S. government's official web portal to all federal, state and local government web resources and services.